createdAt,value
2023-01-21T00:00:51.600Z,-28.3
2023-01-21T00:02:53.350Z,-28.5
2023-01-21T00:04:55.157Z,-28.3
2023-01-21T00:06:56.402Z,-28.3
2023-01-21T00:08:58.358Z,-28.4
2023-01-21T00:11:44.240Z,-28.4
2023-01-21T00:13:45.926Z,-28.1
2023-01-21T00:15:48.042Z,-28.2
2023-01-21T00:17:49.565Z,-28.3
2023-01-21T00:19:51.688Z,-28.4
2023-01-21T00:21:53.378Z,-28.4
2023-01-21T00:23:55.440Z,-28.5
2023-01-21T00:25:57.387Z,-28.3
2023-01-21T00:27:59.103Z,-28.2
2023-01-21T00:34:03.126Z,-28.3
2023-01-21T00:36:04.984Z,-28.3
2023-01-21T00:38:06.905Z,-28.4
2023-01-21T00:40:08.788Z,-28.2
2023-01-21T00:42:10.162Z,-28.3
2023-01-21T00:44:11.634Z,-28
2023-01-21T00:46:13.508Z,-28.2
2023-01-21T00:48:15.592Z,-28
2023-01-21T00:50:17.861Z,-28.2
2023-01-21T00:54:21.338Z,-28.2
2023-01-21T00:56:23.549Z,-28.3
2023-01-21T00:58:25.331Z,-28.2
2023-01-21T01:00:26.697Z,-28.6
2023-01-21T01:02:28.503Z,-28.4
2023-01-21T01:04:29.952Z,-28.3
2023-01-21T01:06:31.398Z,-28.3
2023-01-21T01:08:32.574Z,-28.3
2023-01-21T01:10:34.127Z,-28.5
2023-01-21T01:16:39.055Z,-28.4
2023-01-21T01:18:41.108Z,-28.4
2023-01-21T01:20:42.843Z,-28.3
2023-01-21T01:22:44.366Z,-28.2
2023-01-21T01:24:46.146Z,-28.4
2023-01-21T01:26:47.804Z,-28.4
2023-01-21T01:28:49.841Z,-28.3
2023-01-21T01:30:51.613Z,-28.4
2023-01-21T01:32:52.688Z,-28.5
2023-01-21T01:34:54.571Z,-28.2
2023-01-21T01:36:55.595Z,-28.5
2023-01-21T01:38:57.651Z,-28.3
2023-01-21T01:40:59.677Z,-28.5
2023-01-21T01:43:01.059Z,-28
2023-01-21T01:45:02.409Z,-28.5
2023-01-21T01:47:04.334Z,-28.3
2023-01-21T01:49:05.749Z,-28.3
2023-01-21T01:51:07.296Z,-28.3
2023-01-21T01:53:08.799Z,-28.2
2023-01-21T01:59:13.483Z,-28.5
2023-01-21T02:01:15.183Z,-28.4
2023-01-21T02:03:17.217Z,-28.4
2023-01-21T02:05:18.798Z,-28
2023-01-21T02:07:20.191Z,-28.3
2023-01-21T02:09:21.389Z,-28.3
2023-01-21T02:11:22.620Z,-28.3
2023-01-21T02:13:24.376Z,-28.2
2023-01-21T02:15:25.743Z,-28.3
2023-01-21T02:19:28.414Z,-28.6
2023-01-21T02:21:30.306Z,-28.3
2023-01-21T02:23:31.984Z,-28
2023-01-21T02:25:33.273Z,-28.3
2023-01-21T02:27:35.244Z,-28.5
2023-01-21T02:29:36.819Z,-28.4
2023-01-21T02:31:38.377Z,-28.2
2023-01-21T02:33:48.107Z,-28.4
2023-01-21T02:35:41.359Z,-28.2
2023-01-21T02:41:46.191Z,-28.2
2023-01-21T02:43:48.243Z,-28.5
2023-01-21T02:45:49.788Z,-28.5
2023-01-21T02:47:50.936Z,-28.3
2023-01-21T02:49:52.563Z,-28.4
2023-01-21T02:51:54.417Z,-28.3
2023-01-21T02:53:55.580Z,-28.3
2023-01-21T02:55:56.870Z,-28.4
2023-01-21T02:57:58.540Z,-28.4
2023-01-21T03:02:01.743Z,-28.4
2023-01-21T03:04:03.748Z,-28.4
2023-01-21T03:06:05.455Z,-28.3
2023-01-21T03:08:06.992Z,-28.4
2023-01-21T03:10:09.061Z,-28.3
2023-01-21T03:12:10.834Z,-28
2023-01-21T03:14:12.258Z,-28.1
2023-01-21T03:16:13.442Z,-28.6
2023-01-21T03:18:15.191Z,-28.3
2023-01-21T03:24:19.456Z,-28.5
2023-01-21T03:26:21.514Z,-28.4
2023-01-21T03:28:23.527Z,-28.3
2023-01-21T03:30:25.611Z,-28.3
2023-01-21T03:32:27.665Z,-28.1
2023-01-21T03:34:29.098Z,-28.5
2023-01-21T03:38:32.804Z,-28.4
2023-01-21T03:40:34.740Z,-28.3
2023-01-21T03:42:43.981Z,-28.4
2023-01-21T03:44:37.930Z,-28.3
2023-01-21T03:46:39.636Z,-28.2
2023-01-21T03:48:41.353Z,-28.2
2023-01-21T03:50:43.116Z,-28.2
2023-01-21T03:52:44.503Z,-28.3
2023-01-21T03:54:46.681Z,-28.2
2023-01-21T03:56:48.436Z,-28.3
2023-01-21T03:58:49.799Z,-28.2
2023-01-21T04:00:51.588Z,-28.2
2023-01-21T04:06:56.724Z,-28.3
2023-01-21T04:08:58.485Z,-28.4
2023-01-21T04:10:59.694Z,-28.3
2023-01-21T04:13:01.048Z,-28.5
2023-01-21T04:15:05.124Z,-28.3
2023-01-21T04:17:04.025Z,-28
2023-01-21T04:21:07.397Z,-28.4
2023-01-21T04:23:07.576Z,-28.4
2023-01-21T04:25:09.378Z,-28.2
2023-01-21T04:27:11.084Z,-28.2
2023-01-21T04:31:14.522Z,-28.3
2023-01-21T04:33:15.652Z,-28.3
2023-01-21T04:37:18.289Z,-28.4
2023-01-21T04:39:19.593Z,-28.3
2023-01-21T04:41:21.764Z,-28.3
2023-01-21T04:43:22.321Z,-28.3
2023-01-21T04:47:25.424Z,-28.4
2023-01-21T04:49:26.930Z,-28.3
2023-01-21T04:51:28.325Z,-28.1
2023-01-21T04:53:29.794Z,-28.3
2023-01-21T04:55:31.336Z,-28.2
2023-01-21T04:57:32.739Z,-28.3
2023-01-21T04:59:34.316Z,-28.2
2023-01-21T05:01:36.358Z,-28.2
2023-01-21T05:03:38.456Z,-28.1
2023-01-21T05:05:39.812Z,-28.4
2023-01-21T05:07:41.916Z,-28.3
2023-01-21T05:09:43.759Z,-28.2
2023-01-21T05:15:48.218Z,-28.2
2023-01-21T05:19:50.658Z,-28
2023-01-21T05:21:52.662Z,-28
2023-01-21T05:23:54.179Z,-28.4
2023-01-21T05:25:55.604Z,-28.2
2023-01-21T05:29:58.415Z,-28.3
2023-01-21T05:31:59.706Z,-28.3
2023-01-21T05:34:01.408Z,-28.4
2023-01-21T05:36:02.891Z,-28.3
2023-01-21T05:38:04.098Z,-28.4
2023-01-21T05:40:05.423Z,-28.2
2023-01-21T05:42:06.542Z,-28.4
2023-01-21T05:44:07.860Z,-28
2023-01-21T05:46:09.421Z,-27.9
2023-01-21T05:48:19.366Z,-28.5
2023-01-21T05:50:12.887Z,-28.2
2023-01-21T05:52:13.975Z,-28.3
2023-01-21T05:54:15.969Z,-28.4
2023-01-21T05:56:17.603Z,-28.3
2023-01-21T05:58:19.363Z,-28.4
2023-01-21T06:02:22.624Z,-28.3
2023-01-21T06:04:24.084Z,-28.4
2023-01-21T06:06:25.211Z,-28.4
2023-01-21T06:08:27.032Z,-28.4
2023-01-21T06:14:31.366Z,-28.3
2023-01-21T06:16:32.824Z,-28.5
2023-01-21T06:18:34.211Z,-28.3
2023-01-21T06:20:35.697Z,-28.2
2023-01-21T06:22:37.578Z,-28.3
2023-01-21T06:24:39.082Z,-27.9
2023-01-21T06:26:40.389Z,-28.3
2023-01-21T06:28:42.011Z,-28.1
2023-01-21T06:30:43.599Z,-28.4
2023-01-21T06:32:44.800Z,-28.3
2023-01-21T06:34:46.792Z,-28.3
2023-01-21T06:36:48.394Z,-28.2
2023-01-21T06:38:50.424Z,-28.3
2023-01-21T06:40:51.679Z,-28.2
2023-01-21T06:44:54.840Z,-28.4
2023-01-21T06:47:01.117Z,-28.3
2023-01-21T06:48:57.353Z,-28.3
2023-01-21T06:50:59.357Z,-28.5
2023-01-21T06:53:01.056Z,-28.6
2023-01-21T06:55:02.347Z,-28.3
2023-01-21T06:57:48.327Z,-28.3
2023-01-21T06:59:50.055Z,-28.2
2023-01-21T07:01:52.083Z,-28.3
2023-01-21T07:03:53.317Z,-28.4
2023-01-21T07:05:55.229Z,-28.5
2023-01-21T07:07:56.765Z,-28.4
2023-01-21T07:12:00.131Z,-28.3
2023-01-21T07:14:01.521Z,-28.3
2023-01-21T07:16:05.988Z,-28.4
2023-01-21T07:18:05.227Z,-28.4
2023-01-21T07:24:10.104Z,-28.1
2023-01-21T07:26:11.843Z,-28.3
2023-01-21T07:28:13.034Z,-28
2023-01-21T07:30:15.136Z,-28.2
2023-01-21T07:32:16.478Z,-28.3
2023-01-21T07:34:18.334Z,-28.5
2023-01-21T07:36:19.956Z,-28.2
2023-01-21T07:38:21.420Z,-28.2
2023-01-21T07:40:22.547Z,-28.4
2023-01-21T07:42:24.484Z,-28.2
2023-01-21T07:44:26.027Z,-28.4
2023-01-21T07:46:27.582Z,-28.3
2023-01-21T07:48:28.940Z,-28.2
2023-01-21T07:50:30.577Z,-28.4
2023-01-21T07:54:33.517Z,-28.2
2023-01-21T07:56:35.416Z,-28.4
2023-01-21T07:58:36.985Z,-28.4
2023-01-21T08:00:38.268Z,-28.2
2023-01-21T08:06:42.359Z,-19.1
2023-01-21T08:08:43.498Z,10.4
2023-01-21T08:10:45.568Z,13.9
2023-01-21T08:12:47.378Z,15.3
2023-01-21T08:14:49.336Z,15.9
2023-01-21T08:16:51.229Z,18.1
2023-01-21T08:18:52.551Z,19.1
2023-01-21T08:20:54.361Z,20.9
2023-01-21T08:22:55.608Z,24.4
2023-01-21T08:24:57.215Z,25.3
2023-01-21T08:26:58.572Z,34.8
2023-01-21T08:28:59.844Z,41.3
2023-01-21T08:31:01.472Z,33.7
2023-01-21T08:33:05.544Z,25
2023-01-21T08:35:05.150Z,24.4
2023-01-21T08:37:06.679Z,28.3
2023-01-21T08:39:08.386Z,29.9
2023-01-21T08:41:09.732Z,27.2
2023-01-21T08:43:11.206Z,29
2023-01-21T08:45:14.470Z,33.9
2023-01-21T08:49:16.018Z,34.4
2023-01-21T08:51:17.321Z,34.2
2023-01-21T08:53:18.764Z,33.5
2023-01-21T08:55:20.585Z,33.9
2023-01-21T08:57:22.570Z,34.4
2023-01-21T08:59:24.350Z,35.8
2023-01-21T09:01:26.064Z,37.2
2023-01-21T09:03:27.730Z,38.3
2023-01-21T09:05:28.965Z,41.4
2023-01-21T09:07:30.548Z,48.9
2023-01-21T09:09:31.774Z,56.4
2023-01-21T09:11:33.263Z,61.7
2023-01-21T09:13:34.597Z,68.1
2023-01-21T09:15:36.177Z,62.4
2023-01-21T09:17:37.529Z,63.3
2023-01-21T09:19:38.940Z,61.6
2023-01-21T09:21:40.271Z,60.2
2023-01-21T09:23:41.652Z,62.5
2023-01-21T09:25:43.566Z,65.5
2023-01-21T09:27:44.913Z,50
2023-01-21T09:31:48.141Z,24.1
2023-01-21T09:33:49.584Z,16.7
2023-01-21T09:35:50.849Z,14.5
2023-01-21T09:37:52.426Z,11.1
2023-01-21T09:39:54.336Z,13.1
2023-01-21T09:41:56.214Z,17.4
2023-01-21T09:45:58.890Z,15.7
2023-01-21T09:48:00.128Z,8.7
2023-01-21T09:50:01.528Z,8.89
2023-01-21T09:52:03.384Z,9.6
2023-01-21T09:54:04.711Z,14.6
2023-01-21T09:56:06.595Z,12.3
2023-01-21T09:58:08.291Z,7.4
2023-01-21T10:00:10.325Z,7.3
2023-01-21T10:02:12.154Z,9.39
2023-01-21T10:04:13.589Z,7.2
2023-01-21T10:06:15.411Z,9.7
2023-01-21T10:08:17.264Z,10.6
2023-01-21T10:10:18.995Z,13.4
2023-01-21T10:14:22.734Z,25.5
2023-01-21T10:16:24.212Z,33.5
2023-01-21T10:18:25.731Z,43.4
2023-01-21T10:20:27.632Z,38.2
2023-01-21T10:22:29.012Z,24.9
2023-01-21T10:24:30.323Z,19.29
2023-01-21T10:26:31.938Z,27.9
2023-01-21T10:28:32.958Z,29.4
2023-01-21T10:30:34.760Z,37
2023-01-21T10:32:36.221Z,32.8
2023-01-21T10:34:37.507Z,29.9
2023-01-21T10:36:39.250Z,32.09
2023-01-21T10:38:40.697Z,25.3
2023-01-21T10:40:42.405Z,21
2023-01-21T10:42:44.118Z,21.3
2023-01-21T10:44:45.245Z,17.9
2023-01-21T10:46:47.027Z,13
2023-01-21T10:50:49.911Z,14.7
2023-01-21T10:52:51.863Z,9.89
2023-01-21T10:54:53.853Z,3.3
2023-01-21T10:56:55.525Z,3.5
2023-01-21T10:58:57.065Z,-4.69
2023-01-21T11:00:58.528Z,-7.3
2023-01-21T11:02:59.843Z,-6.5
2023-01-21T11:05:01.739Z,-8
2023-01-21T11:07:03.283Z,-10.3
2023-01-21T11:13:07.184Z,-16.1
2023-01-21T11:15:08.574Z,-17.4
2023-01-21T11:17:10.369Z,-18.79
2023-01-21T11:19:12.123Z,-20.29
2023-01-21T11:21:13.740Z,-24
2023-01-21T11:23:15.797Z,-20.8
2023-01-21T11:25:17.787Z,-22.6
2023-01-21T11:27:19.040Z,-22.8
2023-01-21T11:29:20.197Z,-18.6
2023-01-21T11:33:23.789Z,-20.4
2023-01-21T11:35:24.976Z,-17.1
2023-01-21T11:37:26.423Z,-13.9
2023-01-21T11:39:27.693Z,-17.6
2023-01-21T11:41:29.657Z,-15.1
2023-01-21T11:43:31.658Z,-17.6
2023-01-21T11:45:33.049Z,-17.5
2023-01-21T11:47:35.971Z,-13
2023-01-21T11:49:36.253Z,-14.1
2023-01-21T11:55:41.622Z,-11.7
2023-01-21T11:57:43.204Z,-11.8
2023-01-21T11:59:44.435Z,-11
2023-01-21T12:01:45.945Z,-9.5
2023-01-21T12:03:47.657Z,-6
2023-01-21T12:05:49.437Z,-5.7
2023-01-21T12:09:52.513Z,-3.7
2023-01-21T12:11:54.433Z,-0.6
2023-01-21T12:15:57.393Z,3.4
2023-01-21T12:17:58.433Z,2.4
2023-01-21T12:19:59.537Z,1.1
2023-01-21T12:22:01.009Z,0.8
2023-01-21T12:26:04.220Z,-6.2
2023-01-21T12:28:06.143Z,-8.2
2023-01-21T12:30:07.906Z,-13
2023-01-21T12:32:09.295Z,-18.6
2023-01-21T12:36:12.977Z,-24.9
2023-01-21T12:38:14.156Z,-17.5
2023-01-21T12:40:15.769Z,-13.5
2023-01-21T12:42:16.887Z,-5.8
2023-01-21T12:44:18.852Z,-5.2
2023-01-21T12:46:20.898Z,-1.1
2023-01-21T12:48:22.553Z,5.9
2023-01-21T12:50:24.511Z,17.29
2023-01-21T12:54:27.779Z,34.2
2023-01-21T12:56:29.275Z,24.5
2023-01-21T12:58:31.232Z,-5.7
2023-01-21T13:02:34.399Z,-14.4
2023-01-21T13:04:35.646Z,-9.8
2023-01-21T13:06:52.193Z,-7.9
2023-01-21T13:08:39.110Z,-7.7
2023-01-21T13:10:40.521Z,-3.9
2023-01-21T13:12:41.971Z,-4.6
2023-01-21T13:14:45.197Z,-8
2023-01-21T13:18:47.274Z,3.6
2023-01-21T13:20:48.526Z,-7.8
2023-01-21T13:22:49.591Z,-7.8
2023-01-21T13:24:51.190Z,-11.1
2023-01-21T13:28:53.923Z,-9.6
2023-01-21T13:30:55.132Z,-7
2023-01-21T13:34:58.495Z,1.4
2023-01-21T13:37:00.496Z,3.9
2023-01-21T13:39:02.163Z,5
2023-01-21T13:41:04.064Z,9.7
2023-01-21T13:41:47.984Z,11.7
2023-01-21T13:45:50.730Z,11.1
2023-01-21T13:47:52.428Z,10
2023-01-21T13:49:53.571Z,16.6
2023-01-21T13:51:55.317Z,24.4
2023-01-21T13:53:57.328Z,19.2
2023-01-21T13:55:59.032Z,11.2
2023-01-21T13:58:02.585Z,4.5
2023-01-21T14:02:03.197Z,-9.6
2023-01-21T14:04:05.107Z,-8.39
2023-01-21T14:06:06.724Z,-11
2023-01-21T14:08:08.771Z,-14.4
2023-01-21T14:10:09.947Z,-19.7
2023-01-21T14:12:11.909Z,-22.5
2023-01-21T14:14:13.705Z,-25.4
2023-01-21T14:16:15.253Z,-26.4
2023-01-21T14:18:16.106Z,-27.3
2023-01-21T14:20:17.800Z,-28.2
2023-01-21T14:24:21.074Z,-28.4
2023-01-21T14:26:22.860Z,-28.3
2023-01-21T14:28:24.829Z,-28.2
2023-01-21T14:30:26.590Z,-28.4
2023-01-21T14:32:27.661Z,-28
2023-01-21T14:34:29.304Z,-28.4
2023-01-21T14:36:30.464Z,-28.6
2023-01-21T14:38:32.013Z,-28.3
2023-01-21T14:40:33.542Z,-28
2023-01-21T14:42:35.653Z,-28.3
2023-01-21T14:44:35.783Z,-28.4
2023-01-21T14:46:36.935Z,-28.3
2023-01-21T14:48:38.279Z,-28.3
2023-01-21T14:50:39.693Z,-28.3
2023-01-21T14:52:41.500Z,-28
2023-01-21T14:54:42.713Z,-28.5
2023-01-21T14:56:43.944Z,-28.4
2023-01-21T14:58:45.387Z,-28.3
2023-01-21T15:00:47.957Z,-28.3
2023-01-21T15:03:00.805Z,-28.3
2023-01-21T15:04:50.701Z,-28.4
2023-01-21T15:06:51.044Z,-28
2023-01-21T15:10:54.420Z,-28.4
2023-01-21T15:12:55.513Z,-28.4
2023-01-21T15:14:57.120Z,-28.3
2023-01-21T15:16:58.825Z,-28.2
2023-01-21T15:23:04.662Z,-28.4
2023-01-21T15:25:06.574Z,-28.3
2023-01-21T15:27:08.271Z,-27.9
2023-01-21T15:29:09.496Z,-28.1
2023-01-21T15:31:11.490Z,-28.4
2023-01-21T15:33:13.200Z,-28
2023-01-21T15:35:15.537Z,-28.4
2023-01-21T15:37:17.014Z,-28
2023-01-21T15:39:18.500Z,-28.6
2023-01-21T15:41:20.506Z,-28.6
2023-01-21T15:43:22.133Z,-28.3
2023-01-21T15:45:32.801Z,-28.5
2023-01-21T15:47:25.278Z,-28.4
2023-01-21T15:49:26.598Z,-28.2
2023-01-21T15:51:27.827Z,-28.4
2023-01-21T15:53:28.873Z,-28.2
2023-01-21T15:55:29.971Z,-28.6
2023-01-21T15:57:31.634Z,-28.3
2023-01-21T15:59:33.388Z,-28.5
2023-01-21T16:01:34.649Z,-27.9
2023-01-21T16:05:38.048Z,-28.2
2023-01-21T16:07:39.392Z,-28.4
2023-01-21T16:09:41.132Z,-28.1
2023-01-21T16:11:43.040Z,-28.2
2023-01-21T16:13:44.115Z,-28.4
2023-01-21T16:15:47.530Z,-27.9
2023-01-21T16:19:49.411Z,-28.3
2023-01-21T16:21:51.304Z,-28.4
2023-01-21T16:23:52.393Z,-28.4
2023-01-21T16:25:53.930Z,-28.4
2023-01-21T16:27:55.903Z,-28.1
2023-01-21T16:29:57.081Z,-28
2023-01-21T16:31:58.238Z,-28.5
2023-01-21T16:33:59.698Z,-28.2
2023-01-21T16:36:01.265Z,-28.3
2023-01-21T16:38:02.691Z,-28.3
2023-01-21T16:40:04.481Z,-28.3
2023-01-21T16:42:05.606Z,-28.2
2023-01-21T16:44:07.109Z,-28
2023-01-21T16:46:09.227Z,-28
2023-01-21T16:48:10.409Z,-28.3
2023-01-21T16:50:12.063Z,-28.3
2023-01-21T16:52:13.870Z,-28.4
2023-01-21T16:54:15.889Z,-28.4
2023-01-21T16:56:17.742Z,-28.3
2023-01-21T16:58:19.778Z,-28.4
2023-01-21T17:02:21.993Z,-28.2
2023-01-21T17:04:24.024Z,-28.3
2023-01-21T17:06:25.523Z,-28.6
2023-01-21T17:08:26.686Z,-28.3
2023-01-21T17:10:28.643Z,-28.4
2023-01-21T17:12:29.852Z,-28.4
2023-01-21T17:14:31.547Z,-28.4
2023-01-21T17:16:32.802Z,-28.5
2023-01-21T17:18:34.001Z,-28.4
2023-01-21T17:20:35.717Z,-28.2
2023-01-21T17:24:39.499Z,-28.5
2023-01-21T17:26:40.127Z,-28.2
2023-01-21T17:28:41.295Z,-28.4
2023-01-21T17:30:42.727Z,-28.3
2023-01-21T17:32:43.762Z,-28.3
2023-01-21T17:34:45.760Z,-28.6
2023-01-21T17:36:47.172Z,-28.3
2023-01-21T17:38:48.850Z,-28.4
2023-01-21T17:40:50.831Z,-28.3
2023-01-21T17:46:55.206Z,-28.2
2023-01-21T17:48:56.899Z,-28.3
2023-01-21T17:50:58.798Z,-28.3
2023-01-21T17:53:00.423Z,-28.3
2023-01-21T17:55:01.774Z,-28.5
2023-01-21T17:57:03.291Z,-28.2
2023-01-21T18:01:06.685Z,-28.2
2023-01-21T18:03:08.766Z,-28.2
2023-01-21T18:07:11.319Z,-28.3
2023-01-21T18:09:12.945Z,-28.2
2023-01-21T18:11:14.507Z,-28.2
2023-01-21T18:13:16.040Z,-28.2
2023-01-21T18:17:18.925Z,-28
2023-01-21T18:19:20.016Z,-28.2
2023-01-21T18:21:21.465Z,-28.3
2023-01-21T18:23:22.561Z,-28.6
2023-01-21T18:27:25.919Z,-28.2
2023-01-21T18:29:26.964Z,-28.2
2023-01-21T18:31:29.037Z,-28.3
2023-01-21T18:33:30.171Z,-28.3
2023-01-21T18:37:33.488Z,-28.4
2023-01-21T18:39:35.345Z,-28.5
2023-01-21T18:43:39.023Z,-28.4
2023-01-21T18:45:40.480Z,-28.2
2023-01-21T18:47:41.714Z,-28.2
2023-01-21T18:49:43.481Z,-28.4
2023-01-21T18:55:47.910Z,-27.9
2023-01-21T18:57:49.040Z,-28.5
2023-01-21T18:59:50.695Z,-28.2
2023-01-21T19:01:52.457Z,-28.1
2023-01-21T19:03:53.861Z,-28.5
2023-01-21T19:05:55.837Z,-28.5
2023-01-21T19:07:57.196Z,-28.4
2023-01-21T19:09:59.218Z,-28.3
2023-01-21T19:12:00.750Z,-28.2
2023-01-21T19:14:01.914Z,-28.2
2023-01-21T19:16:03.605Z,-28.5
2023-01-21T19:20:05.918Z,-28.3
2023-01-21T19:22:07.585Z,-28
2023-01-21T19:24:11.077Z,-28.3
2023-01-21T19:26:10.250Z,-28.3
2023-01-21T19:28:11.389Z,-28.4
2023-01-21T19:30:12.799Z,-28.5
2023-01-21T19:32:14.666Z,-28.3
2023-01-21T19:34:15.541Z,-28
2023-01-21T19:36:16.727Z,-28.2
2023-01-21T19:38:18.572Z,-28.3
2023-01-21T19:42:21.195Z,-28.4
2023-01-21T19:44:22.493Z,-28.2
2023-01-21T19:46:24.056Z,-28
2023-01-21T19:48:25.402Z,-28.3
2023-01-21T19:54:29.341Z,-28.3
2023-01-21T19:56:31.088Z,-28.3
2023-01-21T19:58:32.680Z,-27.9
2023-01-21T20:00:34.052Z,-28.3
2023-01-21T20:02:35.359Z,-28.2
2023-01-21T20:04:37.326Z,-28.1
2023-01-21T20:06:38.545Z,-26.6
2023-01-21T20:08:40.496Z,-28.4
2023-01-21T20:10:41.855Z,-28.2
2023-01-21T20:12:43.480Z,-27.9
2023-01-21T20:14:45.054Z,-28.5
2023-01-21T20:16:46.459Z,-28.2
2023-01-21T20:18:48.032Z,-28
2023-01-21T20:20:49.138Z,-28.1
2023-01-21T20:22:50.565Z,-28
2023-01-21T20:24:52.539Z,-28.2
2023-01-21T20:26:53.685Z,-28.4
2023-01-21T20:27:37.648Z,-28.2
2023-01-21T20:31:40.772Z,-28.5
2023-01-21T20:33:43.955Z,-28.2
2023-01-21T20:35:43.384Z,-28.6
2023-01-21T20:37:44.703Z,-28.4
2023-01-21T20:39:46.068Z,-28.4
2023-01-21T20:41:47.658Z,-28.6
2023-01-21T20:47:51.048Z,-28.2
2023-01-21T20:49:52.960Z,-28.4
2023-01-21T20:51:54.610Z,-28.4
2023-01-21T20:53:55.877Z,-28.4
2023-01-21T20:55:57.529Z,-28.4
2023-01-21T20:57:59.114Z,-28.2
2023-01-21T21:02:02.148Z,-28.2
2023-01-21T21:04:03.622Z,-28.3
2023-01-21T21:08:06.799Z,-28.2
2023-01-21T21:12:09.813Z,-28.4
2023-01-21T21:14:11.322Z,-28.3
2023-01-21T21:18:14.394Z,-27.9
2023-01-21T21:20:16.575Z,-28.3
2023-01-21T21:22:18.083Z,-28.4
2023-01-21T21:24:20.194Z,-28.4
2023-01-21T21:30:25.004Z,-28.4
2023-01-21T21:32:26.591Z,-28.2
2023-01-21T21:34:27.813Z,-28.3
2023-01-21T21:36:29.323Z,-28.5
2023-01-21T21:38:30.788Z,-28.4
2023-01-21T21:40:32.478Z,-28.2
2023-01-21T21:44:36.081Z,-28
2023-01-21T21:46:37.442Z,-28.3
2023-01-21T21:48:39.042Z,-28.3
2023-01-21T21:50:40.095Z,-28.5
2023-01-21T21:56:44.867Z,-28.3
2023-01-21T21:58:46.666Z,-28.2
2023-01-21T22:00:48.343Z,-28.2
2023-01-21T22:02:50.041Z,-28.2
2023-01-21T22:04:51.516Z,-28.4
2023-01-21T22:06:52.704Z,-28.2
2023-01-21T22:10:56.042Z,-28.3
2023-01-21T22:12:57.738Z,-28.4
2023-01-21T22:14:59.042Z,-28.4
2023-01-21T22:17:00.307Z,-28.4
2023-01-21T22:21:03.112Z,-28.2
2023-01-21T22:23:05.083Z,-28.2
2023-01-21T22:27:08.163Z,-28.4
2023-01-21T22:29:09.721Z,-28
2023-01-21T22:31:11.182Z,-28.3
2023-01-21T22:33:12.880Z,-28
2023-01-21T22:35:13.959Z,-28.1
2023-01-21T22:39:17.416Z,-28.3
2023-01-21T22:41:18.910Z,-28.2
2023-01-21T22:43:20.297Z,-28.4
2023-01-21T22:45:22.057Z,-28.4
2023-01-21T22:47:22.582Z,-28
2023-01-21T22:49:23.715Z,-28.3
2023-01-21T22:53:26.464Z,-28.1
2023-01-21T22:55:28.279Z,-27.9
2023-01-21T22:57:30.115Z,-28.3
2023-01-21T22:59:31.382Z,-28.3
2023-01-21T23:01:32.593Z,-28.4
2023-01-21T23:03:33.893Z,-28.5
2023-01-21T23:05:35.283Z,-28.6
2023-01-21T23:07:36.857Z,-28.2
2023-01-21T23:09:38.659Z,-28.2
2023-01-21T23:11:40.177Z,-28.3
2023-01-21T23:13:42.178Z,-28.5
2023-01-21T23:15:43.678Z,-28.4
2023-01-21T23:17:45.662Z,-28.3
2023-01-21T23:19:47.296Z,-28.3
2023-01-21T23:21:48.835Z,-28.2
2023-01-21T23:25:52.225Z,-28.2
2023-01-21T23:27:53.725Z,-28.3
2023-01-21T23:29:55.402Z,-28.3
2023-01-21T23:31:56.781Z,-28
2023-01-21T23:36:00.599Z,-26.6
2023-01-21T23:38:01.787Z,-26.6
2023-01-21T23:40:03.752Z,-26.5
2023-01-21T23:42:05.078Z,-26.5
2023-01-21T23:44:06.676Z,-27
2023-01-21T23:46:16.747Z,-26.3
2023-01-21T23:48:09.761Z,-26.3
2023-01-21T23:50:10.980Z,-26.7
2023-01-21T23:52:12.753Z,-26.6
2023-01-21T23:54:14.185Z,-26.4
2023-01-21T23:56:15.716Z,-28.4
2023-01-21T23:58:17.464Z,-28.4
